Terminal Aerodrome Forecast
Issued by NWS

Home | Current Version | Previous Version | Graphics & Text | Print | Product List | Glossary On
Versions: 1 2 3 4 5 6 7 8 9 10 11 12 13 14 15 16 17 18 19 20
560
FTUS43 KBIS 060529
TAFJMS
TAF
KJMS 060529Z 0606/0706 30025G35KT 1SM -SN BR OVC015
     FM061900 30034G46KT 2SM BLSN VCSH OVC020
     FM070000 30028G39KT 3SM BLSN OVC015
     FM070300 30022G32KT P6SM OVC020=

USA.gov is the U.S. government's official web portal to all federal, state and local government web resources and services.